.
WxDataArchive / Data Records for 2014-09-19
2014-09-18 September 2014 2014-09-20

Data Records for Friday, 19 September 2014

Time	Temp	Chill	HIndex	Humid	Dewpt	 Wind 	HiWind	WindDir	Rain 	Barom
-----	----	-----	------	-----	-----	------	------	-------	-----	-----
00:00	55.9	55.9	55.9	84	51.1	0	1	112	0.00	30.158 
00:05	55.7	55.7	55.7	84	50.9	0	1	112	0.00	30.158 
00:10	55.7	55.7	55.7	84	50.9	0	1	112	0.00	30.158 
00:15	55.6	55.6	55.6	84	50.8	0	1	112	0.00	30.158 
00:20	55.4	55.4	55.4	85	51.0	0	1	112	0.00	30.158 
00:25	55.4	55.4	55.4	85	51.0	0	2	112	0.00	30.158 
00:30	55.4	55.4	55.4	85	51.0	0	1	112	0.00	30.160 
00:35	55.3	55.3	55.3	85	50.9	0	1	112	0.00	30.160 
00:40	55.1	55.1	55.1	85	50.7	0	1	112	0.00	30.160 
00:45	55.0	55.0	55.0	86	50.9	0	1	112	0.00	30.161 
00:50	54.8	54.8	54.8	86	50.7	0	0	---	0.00	30.161 
00:55	54.7	54.7	54.7	86	50.6	0	0	---	0.00	30.161 
01:00	54.5	54.5	54.5	87	50.7	0	1	112	0.00	30.163 
01:05	54.4	54.4	54.4	87	50.6	0	1	112	0.00	30.163 
01:10	54.4	54.4	54.4	88	50.9	0	1	112	0.00	30.163 
01:15	54.4	54.4	54.4	88	50.9	0	1	112	0.00	30.164 
01:20	54.2	54.2	54.2	88	50.7	0	2	112	0.00	30.164 
01:25	54.2	54.2	54.2	88	50.7	0	2	112	0.00	30.164 
01:30	54.1	54.1	54.1	88	50.6	0	2	112	0.00	30.166 
01:35	54.1	54.1	54.1	88	50.6	0	1	112	0.00	30.166 
01:40	53.9	53.9	53.9	89	50.7	0	2	112	0.00	30.166 
01:45	53.8	53.8	53.8	89	50.6	0	3	112	0.00	30.166 
01:50	53.6	53.6	53.6	89	50.4	0	1	112	0.00	30.166 
01:55	53.5	53.5	53.5	89	50.3	0	1	112	0.00	30.166 
02:00	53.3	53.3	53.3	90	50.4	0	1	112	0.00	30.169 
02:05	53.2	53.2	53.2	90	50.3	0	1	112	0.00	30.169 
02:10	53.1	53.1	53.1	90	50.2	0	1	112	0.00	30.169 
02:15	53.1	53.1	53.1	91	50.5	0	0	---	0.00	30.173 
02:20	52.9	52.9	52.9	91	50.3	0	2	112	0.00	30.173 
02:25	52.9	52.9	52.9	91	50.3	0	1	112	0.00	30.173 
02:30	52.9	52.9	52.9	91	50.3	0	1	112	0.00	30.176 
02:35	52.9	52.9	52.9	91	50.3	0	1	112	0.00	30.176 
02:40	52.8	52.8	52.8	92	50.5	0	2	112	0.00	30.176 
02:45	52.8	52.8	52.8	92	50.5	0	2	112	0.00	30.182 
02:50	52.8	52.8	52.8	92	50.5	0	1	112	0.00	30.182 
02:55	52.6	52.6	52.6	92	50.3	0	1	112	0.00	30.182 
03:00	52.5	52.5	52.5	92	50.2	0	0	---	0.00	30.187 
03:05	52.5	52.5	52.5	92	50.2	0	0	---	0.00	30.187 
03:10	52.3	52.3	52.3	92	50.0	0	1	112	0.00	30.187 
03:15	52.3	52.3	52.3	92	50.0	0	1	112	0.00	30.182 
03:20	52.3	52.3	52.3	92	50.0	0	1	112	0.00	30.182 
03:25	52.2	52.2	52.2	93	50.2	0	1	112	0.00	30.182 
03:30	52.2	52.2	52.2	93	50.2	0	1	112	0.00	30.176 
03:35	52.0	52.0	52.0	93	50.0	0	1	112	0.00	30.176 
03:40	51.9	51.9	51.9	93	49.9	0	1	112	0.00	30.176 
03:45	51.7	51.7	51.7	93	49.7	0	1	112	0.00	30.174 
03:50	51.6	51.6	51.6	93	49.6	0	2	112	0.00	30.174 
03:55	51.4	51.4	51.4	93	49.4	0	1	112	0.00	30.174 
04:00	51.4	51.4	51.4	94	49.7	0	2	112	0.00	30.165 
04:05	51.3	51.3	51.3	94	49.6	0	2	112	0.00	30.165 
04:10	51.1	51.1	51.1	94	49.4	0	2	112	0.00	30.165 
04:15	51.1	51.1	51.1	94	49.4	0	1	112	0.00	30.167 
04:20	51.1	51.1	51.1	94	49.4	0	1	112	0.00	30.167 
04:25	51.0	51.0	51.0	94	49.3	0	3	112	0.00	30.167 
04:30	51.0	51.0	51.0	94	49.3	0	1	112	0.00	30.170 
04:35	50.8	50.8	50.8	94	49.1	0	2	112	0.00	30.170 
04:40	50.8	50.8	50.8	94	49.1	0	1	112	0.00	30.170 
04:45	50.7	50.7	50.7	95	49.3	0	2	112	0.00	30.166 
04:50	50.7	50.7	50.7	95	49.3	1	4	112	0.00	30.166 
04:55	50.5	50.5	50.5	95	49.1	0	3	112	0.00	30.166 
05:00	50.5	50.5	50.5	95	49.1	0	2	112	0.00	30.166 
05:05	50.5	50.5	50.5	95	49.1	0	3	112	0.00	30.166 
05:10	50.5	50.5	50.5	95	49.1	0	1	112	0.00	30.166 
05:15	50.4	50.4	50.4	95	49.0	0	2	112	0.00	30.163 
05:20	50.4	50.4	50.4	95	49.0	0	2	112	0.00	30.163 
05:25	50.2	50.2	50.2	95	48.8	0	2	112	0.00	30.163 
05:30	50.1	50.1	50.1	95	48.7	1	4	112	0.00	30.163 
05:35	50.1	50.1	50.1	95	48.7	0	2	112	0.00	30.163 
05:40	49.9	49.9	49.9	96	48.8	0	2	112	0.00	30.163 
05:45	49.9	49.9	49.9	96	48.8	0	2	112	0.00	30.167 
05:50	49.8	49.8	49.8	96	48.7	0	1	112	0.00	30.167 
05:55	49.9	49.9	49.9	96	48.8	0	2	112	0.00	30.167 
06:00	49.9	49.9	49.9	96	48.8	0	1	112	0.00	30.171 
06:05	49.9	49.9	49.9	96	48.8	0	1	112	0.00	30.171 
06:10	49.8	49.8	49.8	96	48.7	0	2	112	0.00	30.171 
06:15	49.8	49.8	49.8	96	48.7	0	2	112	0.00	30.176 
06:20	49.6	49.6	49.6	96	48.5	0	3	112	0.00	30.176 
06:25	49.6	49.6	49.6	96	48.5	0	3	112	0.00	30.176 
06:30	49.6	49.6	49.6	96	48.5	0	2	112	0.00	30.178 
06:35	49.5	49.5	49.5	96	48.4	0	3	112	0.00	30.178 
06:40	49.5	49.5	49.5	96	48.4	0	2	112	0.00	30.178 
06:45	49.4	49.4	49.4	96	48.3	0	2	112	0.00	30.179 
06:50	49.4	49.4	49.4	96	48.3	1	3	112	0.00	30.179 
06:55	49.4	49.4	49.4	96	48.3	0	2	112	0.00	30.179 
07:00	49.2	49.2	49.2	96	48.1	1	4	112	0.00	30.181 
07:05	49.2	49.2	49.2	96	48.1	1	3	112	0.00	30.181 
07:10	49.2	49.2	49.2	96	48.1	0	3	112	0.00	30.181 
07:15	49.2	49.2	49.2	96	48.1	1	4	112	0.00	30.192 
07:20	49.2	49.2	49.2	96	48.1	1	3	112	0.00	30.192 
07:25	49.4	49.4	49.4	96	48.3	1	3	112	0.00	30.192 
07:30	49.2	49.2	49.2	96	48.1	0	2	112	0.00	30.200 
07:35	49.4	49.4	49.4	96	48.3	0	2	112	0.00	30.200 
07:40	49.4	49.4	49.4	96	48.3	0	3	112	0.00	30.200 
07:45	49.4	49.4	49.4	96	48.3	0	1	112	0.00	30.206 
07:50	49.4	49.4	49.4	96	48.3	1	3	112	0.00	30.206 
07:55	49.4	49.4	49.4	96	48.3	0	2	112	0.00	30.206 
08:00	49.2	49.2	49.2	96	48.1	0	2	112	0.00	30.211 
08:05	49.2	49.2	49.2	96	48.1	0	2	112	0.00	30.211 
08:10	49.2	49.2	49.2	96	48.1	1	3	112	0.00	30.211 
08:15	49.2	49.2	49.2	96	48.1	1	4	112	0.00	30.213 
08:20	49.2	49.2	49.2	96	48.1	1	2	112	0.00	30.213 
08:25	49.4	49.4	49.4	96	48.3	1	4	112	0.00	30.213 
08:30	49.5	49.5	49.5	96	48.4	1	3	112	0.00	30.210 
08:35	49.6	49.6	49.6	96	48.5	1	4	112	0.00	30.210 
08:40	49.8	49.8	49.8	96	48.7	1	3	112	0.00	30.210 
08:45	49.9	49.9	49.9	96	48.8	0	3	112	0.00	30.211 
08:50	50.1	50.1	50.1	96	49.0	0	3	112	0.00	30.211 
08:55	50.2	50.2	50.2	96	49.1	1	4	112	0.00	30.211 
09:00	50.4	50.4	50.4	96	49.3	0	3	112	0.00	30.209 
09:05	50.5	50.5	50.5	96	49.4	1	3	112	0.00	30.209 
09:10	50.8	50.8	50.8	96	49.7	0	3	112	0.00	30.209 
09:15	51.3	51.3	51.3	96	50.2	1	5	45	0.00	30.212 
09:20	51.6	51.6	51.6	96	50.5	1	6	68	0.00	30.212 
09:25	52.0	52.0	52.0	96	50.9	0	2	68	0.00	30.212 
09:30	52.5	52.5	52.5	96	51.4	1	4	68	0.00	30.209 
09:35	53.1	53.1	53.1	96	52.0	1	6	68	0.00	30.209 
09:40	53.5	53.5	53.5	96	52.4	2	5	135	0.00	30.209 
09:45	53.8	53.8	53.8	95	52.4	2	4	90	0.00	30.213 
09:50	54.2	54.2	54.2	94	52.5	2	5	68	0.00	30.213 
09:55	54.7	54.7	54.7	93	52.7	1	5	68	0.00	30.213 
10:00	55.1	55.1	55.1	91	52.5	1	4	90	0.00	30.216 
10:05	55.9	55.9	55.9	89	52.7	1	5	90	0.00	30.216 
10:10	56.2	56.2	56.2	88	52.7	2	4	68	0.00	30.216 
10:15	56.6	56.6	56.6	87	52.8	1	3	90	0.00	30.215 
10:20	57.0	57.0	57.0	86	52.9	1	5	112	0.00	30.215 
10:25	57.5	57.5	57.5	84	52.7	2	5	90	0.00	30.215 
10:30	57.8	57.8	57.8	83	52.7	2	6	68	0.00	30.214 
10:35	58.4	58.4	58.4	81	52.6	2	5	90	0.00	30.214 
10:40	59.2	59.2	59.2	79	52.7	1	5	90	0.00	30.214 
10:45	59.6	59.6	59.6	77	52.4	2	6	90	0.00	30.211 
10:50	60.1	60.1	60.1	76	52.5	2	5	90	0.00	30.211 
10:55	60.7	60.7	60.7	76	53.1	1	4	90	0.00	30.211 
11:00	61.5	61.5	61.5	74	53.1	1	5	90	0.00	30.210 
11:05	61.8	61.8	61.8	72	52.7	2	6	90	0.00	30.210 
11:10	62.4	62.4	62.4	72	53.2	1	4	90	0.00	30.210 
11:15	62.6	62.6	62.6	71	53.1	2	6	90	0.00	30.208 
11:20	62.9	62.9	62.9	70	53.0	2	6	68	0.00	30.208 
11:25	63.4	63.4	63.4	71	53.8	2	4	90	0.00	30.208 
11:30	63.4	63.4	63.4	69	53.0	2	6	90	0.00	30.199 
11:35	63.9	63.9	63.9	69	53.5	1	4	90	0.00	30.199 
11:40	64.3	64.3	64.3	68	53.5	2	5	90	0.00	30.199 
11:45	64.8	64.8	64.8	66	53.2	1	4	112	0.00	30.198 
11:50	65.3	65.3	65.3	63	52.4	2	8	112	0.00	30.198 
11:55	65.3	65.3	65.3	65	53.2	2	9	90	0.00	30.198 
12:00	65.8	65.8	65.8	63	52.8	0	2	158	0.00	30.190 
12:05	66.4	66.4	66.4	62	53.0	1	3	180	0.00	30.190 
12:10	66.9	66.9	66.9	61	53.0	1	5	135	0.00	30.190 
12:15	67.1	67.1	67.1	58	51.8	1	5	68	0.00	30.178 
12:20	66.9	66.9	66.9	58	51.6	2	6	90	0.00	30.178 
12:25	66.9	66.9	66.9	56	50.7	1	4	68	0.00	30.178 
12:30	67.3	67.3	67.3	56	51.1	1	3	68	0.00	30.174 
12:35	67.6	67.6	67.6	56	51.3	1	5	90	0.00	30.174 
12:40	67.8	67.8	67.8	56	51.5	1	4	112	0.00	30.174 
12:45	67.8	67.8	67.8	54	50.5	2	6	90	0.00	30.170 
12:50	67.8	67.8	67.8	54	50.5	1	4	90	0.00	30.170 
12:55	67.6	67.6	67.6	54	50.4	3	7	90	0.00	30.170 
13:00	67.6	67.6	67.6	55	50.8	2	7	90	0.00	30.159 
13:05	67.8	67.8	67.8	54	50.5	2	9	90	0.00	30.159 
13:10	68.1	68.1	68.1	54	50.8	1	4	112	0.00	30.159 
13:15	68.8	68.8	68.8	54	51.5	1	2	68	0.00	30.154 
13:20	68.9	68.9	68.9	56	52.5	1	4	68	0.00	30.154 
13:25	69.1	69.1	69.1	52	50.7	1	3	45	0.00	30.154 
13:30	69.4	69.4	69.4	52	51.0	0	2	135	0.00	30.146 
13:35	69.6	69.6	69.6	52	51.2	2	7	135	0.00	30.146 
13:40	69.4	69.4	69.4	51	50.5	1	4	112	0.00	30.146 
13:45	69.6	69.6	69.6	50	50.1	1	2	112	0.00	30.147 
13:50	69.9	69.9	69.9	51	50.9	0	4	112	0.00	30.147 
13:55	70.1	70.1	70.1	47	48.9	1	3	112	0.00	30.147 
14:00	69.3	69.3	69.3	50	49.8	2	6	90	0.00	30.144 
14:05	69.1	69.1	69.1	49	49.1	1	4	90	0.00	30.144 
14:10	69.4	69.4	69.4	48	48.8	0	3	90	0.00	30.144 
14:15	70.1	70.1	70.1	50	50.6	0	4	90	0.00	30.142 
14:20	70.3	70.3	70.3	48	49.7	0	2	112	0.00	30.142 
14:25	70.4	70.4	70.4	50	50.9	1	4	112	0.00	30.142 
14:30	70.3	70.3	70.3	51	51.3	1	4	112	0.00	30.143 
14:35	70.4	70.4	70.4	49	50.3	1	3	112	0.00	30.143 
14:40	70.4	70.4	70.4	47	49.2	0	2	112	0.00	30.143 
14:45	69.9	69.9	69.9	47	48.7	1	4	112	0.00	30.139 
14:50	69.4	69.4	69.4	48	48.8	0	1	112	0.00	30.139 
14:55	69.4	69.4	69.4	49	49.4	1	4	112	0.00	30.139 
15:00	69.6	69.6	69.6	50	50.1	1	3	112	0.00	30.125 
15:05	69.9	69.9	69.9	47	48.7	1	4	112	0.00	30.125 
15:10	69.9	69.9	69.9	48	49.3	2	5	68	0.00	30.125 
15:15	70.3	70.3	70.3	46	48.5	1	4	68	0.00	30.114 
15:20	70.6	70.6	70.6	47	49.4	1	4	112	0.00	30.114 
15:25	70.8	70.8	70.8	45	48.4	1	3	270	0.00	30.114 
15:30	70.6	70.6	70.6	48	49.9	2	7	90	0.00	30.108 
15:35	70.3	70.3	70.3	46	48.5	2	4	112	0.00	30.108 
15:40	70.1	70.1	70.1	46	48.3	2	6	90	0.00	30.108 
15:45	70.3	70.3	70.3	45	47.9	1	4	90	0.00	30.114 
15:50	70.4	70.4	70.4	45	48.0	0	4	90	0.00	30.114 
15:55	70.6	70.6	70.6	46	48.8	0	1	90	0.00	30.114 
16:00	70.9	70.9	70.9	46	49.1	0	1	90	0.00	30.105 
16:05	70.9	70.9	70.9	43	47.3	0	3	90	0.00	30.105 
16:10	70.9	70.9	70.9	43	47.3	0	3	90	0.00	30.105 
16:15	70.9	70.9	70.9	45	48.5	1	3	90	0.00	30.097 
16:20	70.8	70.8	70.8	43	47.2	1	3	135	0.00	30.097 
16:25	70.6	70.6	70.6	43	47.0	1	3	202	0.00	30.097 
16:30	70.4	70.4	70.4	42	46.2	0	2	135	0.00	30.097 
16:35	70.4	70.4	70.4	41	45.6	0	4	180	0.00	30.097 
16:40	70.3	70.3	70.3	41	45.5	1	2	158	0.00	30.097 
16:45	70.3	70.3	70.3	44	47.3	1	4	158	0.00	30.096 
16:50	70.1	70.1	70.1	43	46.6	1	3	135	0.00	30.096 
16:55	69.9	69.9	69.9	43	46.4	0	1	135	0.00	30.096 
17:00	70.1	70.1	70.1	44	47.2	0	2	135	0.00	30.084 
17:05	70.1	70.1	70.1	43	46.6	1	3	135	0.00	30.084 
17:10	70.1	70.1	70.1	44	47.2	1	4	45	0.00	30.084 
17:15	69.9	69.9	69.9	44	47.0	1	5	225	0.00	30.078 
17:20	69.9	69.9	69.9	45	47.6	1	5	90	0.00	30.078 
17:25	69.6	69.6	69.6	45	47.3	1	5	90	0.00	30.078 
17:30	69.6	69.6	69.6	44	46.7	1	5	90	0.00	30.079 
17:35	69.6	69.6	69.6	43	46.1	1	2	135	0.00	30.079 
17:40	69.6	69.6	69.6	43	46.1	1	3	90	0.00	30.079 
17:45	69.6	69.6	69.6	43	46.1	0	2	90	0.00	30.070 
17:50	69.6	69.6	69.6	43	46.1	0	1	90	0.00	30.070 
17:55	69.4	69.4	69.4	43	45.9	0	2	90	0.00	30.070 
18:00	69.4	69.4	69.4	44	46.5	0	2	90	0.00	30.071 
18:05	69.3	69.3	69.3	44	46.4	0	3	90	0.00	30.071 
18:10	69.3	69.3	69.3	45	47.0	0	2	90	0.00	30.071 
18:15	69.3	69.3	69.3	45	47.0	0	1	90	0.00	30.070 
18:20	69.3	69.3	69.3	45	47.0	0	1	90	0.00	30.070 
18:25	69.1	69.1	69.1	44	46.3	0	1	90	0.00	30.070 
18:30	69.1	69.1	69.1	45	46.9	0	1	90	0.00	30.069 
18:35	69.1	69.1	69.1	43	45.7	0	1	90	0.00	30.069 
18:40	68.9	68.9	68.9	43	45.5	0	1	90	0.00	30.069 
18:45	68.9	68.9	68.9	44	46.1	0	1	90	0.00	30.066 
18:50	68.8	68.8	68.8	44	46.0	0	2	90	0.00	30.066 
18:55	68.6	68.6	68.6	45	46.4	0	1	90	0.00	30.066 
19:00	68.3	68.3	68.3	46	46.7	0	1	90	0.00	30.060 
19:05	68.1	68.1	68.1	46	46.5	0	3	90	0.00	30.060 
19:10	67.8	67.8	67.8	47	46.8	0	0	---	0.00	30.060 
19:15	67.4	67.4	67.4	48	47.0	0	1	90	0.00	30.057 
19:20	67.1	67.1	67.1	50	47.8	0	1	90	0.00	30.057 
19:25	66.6	66.6	66.6	50	47.4	0	0	---	0.00	30.057 
19:30	66.1	66.1	66.1	52	48.0	0	0	---	0.00	30.055 
19:35	65.6	65.6	65.6	52	47.5	0	0	---	0.00	30.055 
19:40	65.0	65.0	65.0	53	47.4	0	0	---	0.00	30.055 
19:45	64.5	64.5	64.5	53	47.0	0	0	---	0.00	30.056 
19:50	64.0	64.0	64.0	56	48.0	0	0	---	0.00	30.056 
19:55	63.4	63.4	63.4	58	48.4	0	0	---	0.00	30.056 
20:00	62.9	62.9	62.9	58	47.9	0	0	---	0.00	30.046 
20:05	62.6	62.6	62.6	58	47.6	0	0	---	0.00	30.046 
20:10	62.1	62.1	62.1	59	47.6	0	0	---	0.00	30.046 
20:15	61.8	61.8	61.8	60	47.8	0	0	---	0.00	30.044 
20:20	61.2	61.2	61.2	60	47.2	0	0	---	0.00	30.044 
20:25	60.9	60.9	60.9	61	47.4	0	0	---	0.00	30.044 
20:30	60.4	60.4	60.4	62	47.3	0	0	---	0.00	30.051 
20:35	59.9	59.9	59.9	63	47.3	0	0	---	0.00	30.051 
20:40	59.6	59.6	59.6	65	47.8	0	0	---	0.00	30.051 
20:45	59.2	59.2	59.2	66	47.8	0	0	---	0.00	30.054 
20:50	58.9	58.9	58.9	68	48.4	0	0	---	0.00	30.054 
20:55	58.3	58.3	58.3	69	48.2	0	0	---	0.00	30.054 
21:00	58.0	58.0	58.0	69	47.9	0	0	---	0.00	30.058 
21:05	57.6	57.6	57.6	70	47.9	0	0	---	0.00	30.058 
21:10	57.3	57.3	57.3	71	48.0	0	0	---	0.00	30.058 
21:15	56.9	56.9	56.9	72	48.0	0	0	---	0.00	30.057 
21:20	56.6	56.6	56.6	74	48.4	0	0	---	0.00	30.057 
21:25	56.3	56.3	56.3	76	48.8	0	0	---	0.00	30.057 
21:30	56.0	56.0	56.0	77	48.9	0	0	---	0.00	30.056 
21:35	55.7	55.7	55.7	77	48.6	0	0	---	0.00	30.056 
21:40	55.6	55.6	55.6	77	48.5	0	0	---	0.00	30.056 
21:45	55.3	55.3	55.3	78	48.6	0	0	---	0.00	30.052 
21:50	55.0	55.0	55.0	79	48.6	0	0	---	0.00	30.052 
21:55	54.8	54.8	54.8	79	48.4	0	0	---	0.00	30.052 
22:00	54.5	54.5	54.5	80	48.5	0	0	---	0.00	30.048 
22:05	54.4	54.4	54.4	81	48.7	0	0	---	0.00	30.048 
22:10	54.1	54.1	54.1	81	48.4	0	0	---	0.00	30.048 
22:15	53.9	53.9	53.9	81	48.2	0	0	---	0.00	30.047 
22:20	53.8	53.8	53.8	82	48.4	0	0	---	0.00	30.047 
22:25	53.8	53.8	53.8	82	48.4	0	0	---	0.00	30.047 
22:30	53.6	53.6	53.6	82	48.2	0	0	---	0.00	30.048 
22:35	53.5	53.5	53.5	83	48.5	0	0	---	0.00	30.048 
22:40	53.3	53.3	53.3	83	48.3	0	0	---	0.00	30.048 
22:45	53.2	53.2	53.2	84	48.5	0	0	---	0.00	30.049 
22:50	53.1	53.1	53.1	84	48.4	0	0	---	0.00	30.049 
22:55	52.9	52.9	52.9	84	48.2	0	0	---	0.00	30.049 
23:00	52.8	52.8	52.8	84	48.1	0	0	---	0.00	30.043 
23:05	52.8	52.8	52.8	85	48.4	0	0	---	0.00	30.043 
23:10	52.6	52.6	52.6	85	48.2	0	0	---	0.00	30.043 
23:15	52.5	52.5	52.5	85	48.1	0	0	---	0.00	30.038 
23:20	52.5	52.5	52.5	86	48.4	0	0	---	0.00	30.038 
23:25	52.3	52.3	52.3	86	48.2	0	0	---	0.00	30.038 
23:30	52.3	52.3	52.3	86	48.2	0	0	---	0.00	30.034 
23:35	52.2	52.2	52.2	87	48.4	0	0	---	0.00	30.034 
23:40	52.2	52.2	52.2	87	48.4	0	0	---	0.00	30.034 
23:45	52.2	52.2	52.2	87	48.4	0	0	---	0.00	30.035 
23:50	52.2	52.2	52.2	87	48.4	0	0	---	0.00	30.035 
23:55	52.0	52.0	52.0	87	48.3	0	0	---	0.00	30.035 

CoCoRaHS
IN-AL-39
A2 Web Hosting
Creative Commons License
GoDaddy
search engine by freefind advanced

loaded 2018-11-20 06:12:11 • last modified 2010-11-18 10:43:29
Privacy PolicyDisclaimer
• wx.awcolley.com is powered by PmWiki v.2002016 •
• all content (unless otherwise noted) © 2018 A W Colley